Saint Leo, Minnesota
Current Conditions -  °F | °C
As of 6:15 AM on Sunday 21 Dec 2014 (Local Time) from KMML Reporting Station
Overcast Overcast  
Wind Chill: 25°   Ceiling: 600
Heat Index: 32°   Visibility: 5mi
Dew Point: 28°   Wind: 8mph
Humidity: 87%   Direction: 200°SSW
Pressure: 29.83"   Gusts: NA
Location:  44.5481°N, 95.9664°W
Report Text: KMML 211215Z AUTO 20007KT 5SM OVC006 00/M02 A2983 RMK AO1
Loading
Personal Weather Stations






























Interactive Weather Map New forecast layout! Learn more

10-Day Weather Forecast

Advertisements
Track Severe Weather on mobile